Weather at San Mateo Highlands Airfield [CLOSED]

Public forecast

Using degrees Fahrenheit for public forecast. Weather courtesy of forecast.io.

Closest aviation weather report (METAR) to San Mateo Highlands Airfield

Closest report is San Carlos Airport, 4.2 nm (7.8 km) E.

2024/05/30 17:47 (retrieved 1 hour ago)

KSQL 301747Z 00000KT 10SM CLR 21/12 A3000

Closest aviation forecast (TAF) to San Mateo Highlands Airfield

Closest forecast is San Francisco International Airport, 6.7 nm (12.4 km) NNW.

2024/05/30 18:22 (retrieved 37 minutes ago)

TAF KSFO 301720Z 3018/3124 VRB05KT P6SM SKC FM302000 28015G24KT P6SM SKC FM310500 29012KT P6SM SKC FM310800 VRB05KT P6SM SKC FM312100 26012G20KT P6SM SKC